Barton, North Dakota
Current Conditions -  °F | °C
As of 12:15 AM on Saturday 29 Nov 2014 (Local Time) from KRUG Reporting Station
Few Clouds Few Clouds  
Wind Chill:   Ceiling: Unl
Heat Index: 10°   Visibility: 10mi
Dew Point:   Wind: 5mph
Humidity: 92%   Direction: 110°ESE
Pressure: 29.46"   Gusts: NA
Location:  48.5496°N, 100.255°W
Report Text: KRUG 290615Z AUTO 11004KT 10SM FEW090 M12/M13 A2946 RMK AO2
Loading
Personal Weather Stations






























Interactive Weather Map New forecast layout! Learn more

10-Day Weather Forecast

Advertisements
Track Severe Weather on mobile